Home > Products > Valid Products > MTR

000
SAUS43 KDLH 010657
MTRGNA
METAR KGNA 010656Z AUTO 26003KT 18/16 A2957 RMK AO1 SLP008 T01830161





000
SAUS43 KDLH 010558
MTRGNA
METAR KGNA 010556Z AUTO 00000KT 18/16 A2959 RMK AO1 SLP017 T01780161
10183 20172 401830106 58019





000
SAUS43 KDLH 010457
MTRGNA
METAR KGNA 010456Z AUTO 06006KT 18/16 A2965 RMK AO1 SLP036 T01780156





000
SAUS43 KDLH 010357
MTRGNA
METAR KGNA 010356Z AUTO 06007KT 18/15 A2965 RMK AO1 SLP035 T01780150





000
SAUS43 KDLH 010257
MTRGNA
METAR KGNA 010256Z AUTO 06009KT 18/14 A2965 RMK AO1 SLP037 T01830144
55017





000
SAUS43 KDLH 010157
MTRGNA
METAR KGNA 010156Z AUTO 06012G19KT 18/14 A2965 RMK AO1 SLP036
T01830144





000
SAUS43 KDLH 010157
MTRGNA
METAR KGNA 010156Z AUTO 06012G19KT 18/14 A2965 RMK AO1 SLP036
T01830144





000
SAUS43 KDLH 010057
MTRGNA
METAR KGNA 010056Z AUTO 05009G14KT 18/14 A2967 RMK AO1 SLP044
T01780139





000
SAUS43 KDLH 312357
MTRGNA
METAR KGNA 312356Z AUTO 05011G20KT 17/13 A2970 RMK AO1 SLP056
T01720133 10172 20156 58018





000
SAUS43 KDLH 312257
MTRGNA
METAR KGNA 312256Z AUTO 05011G17KT 17/13 A2973 RMK AO1 SLP065
T01720128





000
SAUS43 KDLH 312157
MTRGNA
METAR KGNA 312156Z AUTO 06012G18KT 17/13 A2975 RMK AO1 SLP073
T01720133





000
SAUS43 KDLH 312057
MTRGNA
METAR KGNA 312056Z AUTO 06012G20KT 17/14 A2976 RMK AO1 PRESFR SLP075
T01670139 58038





000
SAUS43 KDLH 311957
MTRGNA
METAR KGNA 311956Z AUTO 06010G15KT 16/14 A2981 RMK AO1 SLP093
T01560139





000
SAUS43 KDLH 311858
MTRGNA
METAR KGNA 311856Z AUTO 07010KT 16/14 A2984 RMK AO1 SLP105 T01610139





000
SAUS43 KDLH 311758
MTRGNA
METAR KGNA 311756Z AUTO 07007KT 16/13 A2987 RMK AO1 SLP113 T01610133
10172 20111 58011





000
SAUS43 KDLH 311657
MTRGNA
METAR KGNA 311656Z AUTO 08012KT 16/13 A2988 RMK AO1 SLP119 T01610133





000
SAUS43 KDLH 311558
MTRGNA
METAR KGNA 311556Z AUTO 07007KT 17/14 A2990 RMK AO1 SLP124 T01670139





000
SAUS43 KDLH 311457
MTRGNA
METAR KGNA 311456Z AUTO 06008KT 16/13 A2990 RMK AO1 SLP124 T01610133
58005





000
SAUS43 KDLH 311358
MTRGNA
METAR KGNA 311356Z AUTO 08009KT 16/12 A2992 RMK AO1 SLP127 T01610122





000
SAUS43 KDLH 311257
MTRGNA
METAR KGNA 311256Z AUTO 07004KT 16/13 A2992 RMK AO1 SLP128 T01560128





000
SAUS43 KDLH 311157
MTRGNA
METAR KGNA 311156Z AUTO 01003KT 11/10 A2992 RMK AO1 SLP130 T01110100
10133 20106 55000





000
SAUS43 KDLH 311057
MTRGNA
METAR KGNA 311056Z AUTO 00000KT 11/10 A2991 RMK AO1 SLP128 T01060100





000
SAUS43 KDLH 310957
MTRGNA
METAR KGNA 310956Z AUTO 32003KT 12/11 A2992 RMK AO1 SLP131 T01170106





000
SAUS43 KDLH 310857
MTRGNA
METAR KGNA 310856Z AUTO 00000KT 12/11 A2992 RMK AO1 SLP131 T01170111
53004





000
SAUS43 KDLH 310758
MTRGNA
METAR KGNA 310756Z AUTO 34003KT 12/11 A2992 RMK AO1 SLP131 T01170106





000
SAUS43 KDLH 310657
MTRGNA
METAR KGNA 310656Z AUTO 00000KT 12/11 A2990 RMK AO1 SLP123 T01170106





000
SAUS43 KDLH 310557
MTRGNA
METAR KGNA 310556Z AUTO 00000KT 13/12 A2991 RMK AO1 SLP125 T01330117
10167 20122 401940122 50001





000
SAUS43 KDLH 310458
MTRGNA
METAR KGNA 310456Z AUTO 00000KT 13/12 A2991 RMK AO1 SLP127 T01280117





000
SAUS43 KDLH 310358
MTRGNA
METAR KGNA 310356Z AUTO 00000KT 13/12 A2991 RMK AO1 SLP126 T01330122





000
SAUS43 KDLH 310258
MTRGNA
METAR KGNA 310256Z AUTO 00000KT 14/13 A2991 RMK AO1 SLP125 T01440133
50007





000
SAUS43 KDLH 310157
MTRGNA
METAR KGNA 310156Z AUTO 27003KT 16/14 A2991 RMK AO1 SLP126 T01560144





000
SAUS43 KDLH 310057
MTRGNA
METAR KGNA 310056Z AUTO 00000KT 17/15 A2990 RMK AO1 SLP121 T01670150





000
SAUS43 KDLH 302357
MTRGNA
METAR KGNA 302356Z AUTO 00000KT 17/16 A2988 RMK AO1 SLP117 T01670156
10194 20167 51004





000
SAUS43 KDLH 302258
MTRGNA
METAR KGNA 302256Z AUTO 27003KT 17/16 A2988 RMK AO1 SLP117 T01670156





000
SAUS43 KDLH 302158
MTRGNA
METAR KGNA 302156Z AUTO 22004KT 17/15 A2988 RMK AO1 SLP116 T01720150





000
SAUS43 KDLH 302058
MTRGNA
METAR KGNA 302056Z AUTO 00000KT 17/14 A2987 RMK AO1 SLP113 T01720144
51005





000
SAUS43 KDLH 301958
MTRGNA
METAR KGNA 301956Z AUTO 00000KT 17/15 A2987 RMK AO1 SLP112 T01720150





000
SAUS43 KDLH 301858
MTRGNA
METAR KGNA 301856Z AUTO 08005KT 19/14 A2986 RMK AO1 SLP109 T01940144





000
SAUS43 KDLH 301758
MTRGNA
METAR KGNA 301756Z AUTO VRB03KT 19/15 A2986 RMK AO1 SLP106 T01890150
10194 20156 52004





000
SAUS43 KDLH 301657
MTRGNA
METAR KGNA 301656Z AUTO 02004KT 18/16 A2985 RMK AO1 SLP104 T01830156





000
SAUS43 KDLH 301557
MTRGNA
METAR KGNA 301556Z AUTO 00000KT 17/16 A2985 RMK AO1 SLP104 T01670156





000
SAUS43 KDLH 301457
MTRGNA
METAR KGNA 301456Z AUTO 00000KT 17/16 A2984 RMK AO1 SLP103 T01670156
51011





000
SAUS43 KDLH 301357
MTRGNA
METAR KGNA 301356Z AUTO 21004KT 16/15 A2983 RMK AO1 SLP101 T01560150





000
SAUS43 KDLH 301257
MTRGNA
METAR KGNA 301256Z AUTO 00000KT 16/15 A2983 RMK AO1 SLP098 T01560150





000
SAUS43 KDLH 301157
MTRGNA
METAR KGNA 301156Z AUTO 06003KT 16/15 A2981 RMK AO1 SLP092 70030
T01560150 10161 20133 51010





000
SAUS43 KDLH 301057
MTRGNA
METAR KGNA 301056Z AUTO 00000KT 14/13 A2981 RMK AO1 SLP091 T01440133





000
SAUS43 KDLH 300957
MTRGNA
METAR KGNA 300956Z AUTO 34003KT 14/13 A2978 RMK AO1 SLP084 T01390128





000
SAUS43 KDLH 300857
MTRGNA
METAR KGNA 300856Z AUTO 00000KT 14/13 A2978 RMK AO1 SLP082 T01390133
50000





000
SAUS43 KDLH 300757
MTRGNA
METAR KGNA 300756Z AUTO 34003KT 14/14 A2979 RMK AO1 SLP084 T01440139





000
SAUS43 KDLH 300657
MTRGNA
METAR KGNA 300656Z AUTO 00000KT 16/14 A2978 RMK AO1 SLP083 T01560144





000
SAUS43 KDLH 300557
MTRGNA
METAR KGNA 300556Z AUTO 00000KT 16/15 A2978 RMK AO1 SLP081 T01610150
10161 20150 401720144 50000





000
SAUS43 KDLH 300457
MTRGNA
METAR KGNA 300456Z AUTO 00000KT 16/15 A2978 RMK AO1 SLP083 T01560150





000
SAUS43 KDLH 300357
MTRGNA
METAR KGNA 300356Z AUTO 00000KT 16/15 A2978 RMK AO1 SLP081 T01560150





000
SAUS43 KDLH 300257
MTRGNA
METAR KGNA 300256Z AUTO 00000KT 16/15 A2978 RMK AO1 SLP081 T01560150
51008





000
SAUS43 KDLH 300157
MTRGNA
METAR KGNA 300156Z AUTO 00000KT 16/14 A2978 RMK AO1 SLP081 T01560144





000
SAUS43 KDLH 300057
MTRGNA
METAR KGNA 300056Z AUTO 00000KT 16/15 A2977 RMK AO1 SLP077 T01610150





000
SAUS43 KDLH 292357
MTRGNA
METAR KGNA 292356Z AUTO 06003KT 16/15 A2976 RMK AO1 SLP073 P0001
60019 T01560150 10161 20156 55005





000
SAUS43 KDLH 292257
MTRGNA
METAR KGNA 292256Z AUTO 06004KT 16/15 A2975 RMK AO1 SLP073 T01560150





000
SAUS43 KDLH 292157
MTRGNA
METAR KGNA 292156Z AUTO 06006KT 16/15 A2976 RMK AO1 SLP074 T01560150





000
SAUS43 KDLH 292057
MTRGNA
METAR KGNA 292056Z AUTO 06007KT 16/15 A2977 RMK AO1 SLP079 P0002
60018 T01560150 56019





000
SAUS43 KDLH 291957
MTRGNA
METAR KGNA 291956Z AUTO 08011KT 16/14 A2979 RMK AO1 SLP086 P0003
T01610144





000
SAUS43 KDLH 291857
MTRGNA
METAR KGNA 291856Z AUTO 07007KT 16/15 A2980 RMK AO1 SLP091 P0013
T01560150





000
SAUS43 KDLH 291757
MTRGNA
METAR KGNA 291756Z AUTO 07006KT 16/15 A2983 RMK AO1 SLP097 P0004
60011 T01610150 10172 20156 58010





000
SAUS43 KDLH 291657
MTRGNA
METAR KGNA 291656Z AUTO 08009KT 16/14 A2985 RMK AO1 SLP105 T01610144





000
SAUS43 KDLH 291558
MTRGNA
METAR KGNA 291556Z AUTO 06007KT 16/14 A2984 RMK AO1 SLP103 P0006
T01610144





000
SAUS43 KDLH 291457
MTRGNA
METAR KGNA 291456Z AUTO 06009KT 17/15 A2986 RMK AO1 SLP107 P0001
60001 T01670150 58014





000
SAUS43 KDLH 291357
MTRGNA
METAR KGNA 291356Z AUTO 07005KT 17/14 A2987 RMK AO1 SLP112 T01670144





000
SAUS43 KDLH 291258
MTRGNA
METAR KGNA 291256Z AUTO 06004KT 17/14 A2989 RMK AO1 SLP119 T01670144





000
SAUS43 KDLH 291157
MTRGNA
METAR KGNA 291156Z AUTO 05005KT 17/14 A2990 RMK AO1 SLP121 T01670139
10167 20144 58003





000
SAUS43 KDLH 291057
MTRGNA
METAR KGNA 291056Z AUTO 06004KT 17/13 A2990 RMK AO1 SLP123 T01670133





000
SAUS43 KDLH 290957
MTRGNA
METAR KGNA 290956Z AUTO 05003KT 16/13 A2991 RMK AO1 SLP125 T01610128





000
SAUS43 KDLH 290857
MTRGNA
METAR KGNA 290856Z AUTO 05004KT 16/12 A2991 RMK AO1 SLP124 T01560122
56015





000
SAUS43 KDLH 290757
MTRGNA
METAR KGNA 290756Z AUTO 00000KT 15/12 A2992 RMK AO1 SLP128 T01500122





    US Dept of Commerce
    National Oceanic and Atmospheric Administration
    National Weather Service
    1325 East West Highway
    Silver Spring, MD 20910
    Page Author: NWS Internet Services Team
Disclaimer
Information Quality
Credits
Glossary
Privacy Policy
Freedom of Information Act (FOIA)
About Us
Career Opportunities